createdAt,value
2017-09-12T00:01:26.919Z,99.90
2017-09-12T00:03:54.511Z,99.90
2017-09-12T00:06:22.095Z,99.90
2017-09-12T00:08:49.655Z,99.90
2017-09-12T00:11:17.239Z,99.90
2017-09-12T00:13:44.887Z,99.90
2017-09-12T00:16:12.547Z,99.90
2017-09-12T00:18:40.131Z,99.90
2017-09-12T00:21:07.691Z,99.90
2017-09-12T00:23:36.788Z,99.90
2017-09-12T00:26:04.348Z,99.90
2017-09-12T00:28:31.934Z,99.90
2017-09-12T00:30:59.496Z,99.90
2017-09-12T00:33:27.099Z,99.90
2017-09-12T00:35:54.718Z,99.90
2017-09-12T00:38:22.428Z,99.90
2017-09-12T00:40:49.987Z,99.90
2017-09-12T00:43:17.586Z,99.90
2017-09-12T00:45:45.151Z,99.90
2017-09-12T00:48:12.720Z,99.90
2017-09-12T00:50:40.308Z,99.90
2017-09-12T00:53:07.866Z,99.90
2017-09-12T00:55:35.471Z,99.90
2017-09-12T00:58:03.807Z,99.90
2017-09-12T01:00:31.367Z,99.90
2017-09-12T01:02:58.967Z,99.90
2017-09-12T01:05:27.283Z,99.90
2017-09-12T01:07:54.879Z,99.90
2017-09-12T01:10:22.442Z,99.90
2017-09-12T01:12:50.004Z,99.90
2017-09-12T01:15:17.579Z,99.90
2017-09-12T01:17:45.903Z,99.90
2017-09-12T01:20:13.491Z,99.90
2017-09-12T01:22:41.051Z,99.90
2017-09-12T01:25:08.639Z,99.90
2017-09-12T01:27:36.999Z,99.90
2017-09-12T01:30:05.471Z,99.90
2017-09-12T01:32:33.030Z,99.90
2017-09-12T01:35:00.596Z,99.90
2017-09-12T01:37:28.940Z,99.90
2017-09-12T01:39:56.502Z,99.90
2017-09-12T01:42:24.228Z,99.90
2017-09-12T01:44:51.829Z,99.90
2017-09-12T01:47:19.396Z,99.90
2017-09-12T01:49:47.111Z,99.90
2017-09-12T01:52:14.679Z,99.90
2017-09-12T01:54:42.475Z,99.90
2017-09-12T01:57:10.035Z,99.90
2017-09-12T01:59:37.599Z,99.90
2017-09-12T02:02:05.234Z,99.90
2017-09-12T02:04:32.791Z,99.90
2017-09-12T02:07:00.422Z,99.90
2017-09-12T02:09:27.975Z,99.90
2017-09-12T02:11:55.567Z,99.90
2017-09-12T02:14:23.141Z,99.90
2017-09-12T02:16:50.724Z,99.90
2017-09-12T02:19:19.124Z,99.90
2017-09-12T02:21:46.684Z,99.90
2017-09-12T02:24:14.276Z,99.90
2017-09-12T02:26:42.003Z,99.90
2017-09-12T02:29:09.568Z,99.90
2017-09-12T02:31:37.155Z,99.90
2017-09-12T02:34:04.724Z,99.90
2017-09-12T02:36:32.322Z,99.90
2017-09-12T02:39:00.842Z,99.90
2017-09-12T02:41:28.415Z,99.90
2017-09-12T02:43:56.167Z,99.90
2017-09-12T02:46:23.783Z,99.90
2017-09-12T02:48:52.131Z,99.90
2017-09-12T02:51:19.738Z,99.90
2017-09-12T02:53:47.312Z,99.90
2017-09-12T02:56:14.876Z,99.90
2017-09-12T02:58:42.479Z,99.90
2017-09-12T03:01:10.107Z,99.90
2017-09-12T03:03:37.655Z,99.90
2017-09-12T03:06:05.228Z,99.90
2017-09-12T03:08:32.824Z,99.90
2017-09-12T03:11:01.187Z,99.90
2017-09-12T03:13:28.744Z,99.90
2017-09-12T03:15:56.303Z,99.90
2017-09-12T03:18:23.887Z,99.90
2017-09-12T03:20:52.344Z,99.90
2017-09-12T03:23:20.687Z,99.90
2017-09-12T03:25:48.259Z,99.90
2017-09-12T03:28:15.856Z,99.90
2017-09-12T03:30:44.349Z,99.90
2017-09-12T03:33:11.994Z,99.90
2017-09-12T03:35:40.351Z,99.90
2017-09-12T03:38:08.795Z,99.90
2017-09-12T03:40:36.351Z,99.90
2017-09-12T03:43:03.940Z,99.90
2017-09-12T03:45:32.304Z,99.90
2017-09-12T03:47:59.865Z,99.90
2017-09-12T03:50:27.424Z,99.90
2017-09-12T03:52:55.015Z,99.90
2017-09-12T03:55:23.335Z,99.90
2017-09-12T03:57:50.905Z,99.90
2017-09-12T04:00:18.495Z,99.90
2017-09-12T04:02:46.090Z,99.90
2017-09-12T04:05:13.659Z,99.90
2017-09-12T04:07:41.216Z,99.90
2017-09-12T04:10:08.796Z,99.90
2017-09-12T04:12:36.355Z,99.90
2017-09-12T04:15:03.939Z,99.90
2017-09-12T04:17:31.527Z,99.90
2017-09-12T04:19:59.856Z,99.90
2017-09-12T04:22:27.466Z,99.90
2017-09-12T04:24:55.895Z,99.90
2017-09-12T04:27:23.447Z,99.90
2017-09-12T04:29:51.027Z,99.90
2017-09-12T04:32:18.591Z,99.90
2017-09-12T04:34:46.176Z,99.90
2017-09-12T04:37:14.519Z,99.90
2017-09-12T04:39:42.099Z,99.90
2017-09-12T04:42:10.455Z,99.90
2017-09-12T04:44:38.056Z,99.90
2017-09-12T04:47:05.614Z,99.90
2017-09-12T04:49:33.175Z,99.90
2017-09-12T04:52:00.752Z,99.90
2017-09-12T04:54:28.337Z,99.90
2017-09-12T04:56:55.939Z,99.90
2017-09-12T04:59:24.260Z,99.90
2017-09-12T05:01:51.843Z,99.90
2017-09-12T05:04:19.415Z,99.90
2017-09-12T05:06:48.579Z,99.90
2017-09-12T05:09:16.172Z,99.90
2017-09-12T05:11:43.727Z,99.90
2017-09-12T05:14:11.319Z,99.90
2017-09-12T05:16:38.881Z,99.90
2017-09-12T05:19:06.550Z,99.90
2017-09-12T05:21:34.143Z,99.90
2017-09-12T05:24:01.771Z,99.90
2017-09-12T05:26:29.333Z,99.90
2017-09-12T05:28:56.886Z,99.90
2017-09-12T05:31:24.471Z,99.90
2017-09-12T05:33:52.067Z,99.90
2017-09-12T05:36:20.388Z,99.90
2017-09-12T05:38:47.952Z,99.90
2017-09-12T05:41:15.531Z,99.90
2017-09-12T05:43:43.108Z,99.90
2017-09-12T05:46:10.708Z,99.90
2017-09-12T05:48:38.276Z,99.90
2017-09-12T05:51:05.933Z,99.90
2017-09-12T05:53:33.515Z,99.90
2017-09-12T05:56:01.066Z,99.90
2017-09-12T05:58:28.678Z,99.90
2017-09-12T06:00:56.992Z,99.90
2017-09-12T06:03:24.551Z,99.90
2017-09-12T06:05:52.135Z,99.90
2017-09-12T06:08:19.689Z,99.90
2017-09-12T06:10:47.316Z,99.90
2017-09-12T06:13:14.880Z,99.90
2017-09-12T06:15:42.463Z,99.90
2017-09-12T06:18:10.043Z,99.90
2017-09-12T06:20:37.599Z,99.90
2017-09-12T06:23:05.186Z,99.90
2017-09-12T06:25:33.504Z,99.90
2017-09-12T06:28:01.064Z,99.90
2017-09-12T06:30:28.659Z,99.90
2017-09-12T06:32:56.223Z,99.90
2017-09-12T06:35:24.547Z,99.90
2017-09-12T06:37:52.143Z,99.90
2017-09-12T06:40:19.719Z,99.90
2017-09-12T06:42:48.084Z,99.90
2017-09-12T06:45:15.638Z,99.90
2017-09-12T06:47:43.266Z,99.90
2017-09-12T06:50:10.875Z,99.90
2017-09-12T06:52:39.315Z,99.90
2017-09-12T06:55:06.899Z,99.90
2017-09-12T06:57:34.460Z,99.90
2017-09-12T07:00:02.069Z,99.90
2017-09-12T07:02:29.632Z,99.90
2017-09-12T07:04:57.193Z,99.90
2017-09-12T07:07:24.803Z,99.90
2017-09-12T07:09:52.360Z,99.90
2017-09-12T07:12:19.959Z,99.90
2017-09-12T07:14:47.526Z,99.90
2017-09-12T07:17:15.158Z,99.90
2017-09-12T07:19:43.492Z,99.90
2017-09-12T07:22:11.176Z,99.90
2017-09-12T07:24:38.775Z,99.90
2017-09-12T07:27:06.336Z,99.90
2017-09-12T07:29:33.929Z,99.90
2017-09-12T07:32:01.492Z,99.90
2017-09-12T07:34:29.147Z,99.90
2017-09-12T07:36:56.731Z,99.90
2017-09-12T07:39:24.295Z,99.90
2017-09-12T07:41:52.660Z,99.90
2017-09-12T07:44:20.224Z,99.90
2017-09-12T07:46:47.789Z,99.90
2017-09-12T07:49:16.152Z,99.90
2017-09-12T07:51:43.719Z,99.90
2017-09-12T07:54:12.064Z,99.90
2017-09-12T07:56:39.622Z,99.90
2017-09-12T07:59:07.211Z,99.90
2017-09-12T08:01:34.812Z,99.90
2017-09-12T08:04:02.432Z,99.90
2017-09-12T08:06:30.907Z,99.90
2017-09-12T08:08:59.239Z,99.90
2017-09-12T08:11:26.795Z,99.90
2017-09-12T08:13:54.379Z,99.90
2017-09-12T08:16:22.031Z,99.90
2017-09-12T08:18:51.260Z,99.90
2017-09-12T08:21:18.818Z,99.90
2017-09-12T08:23:46.471Z,99.90
2017-09-12T08:26:14.046Z,99.90
2017-09-12T08:28:42.487Z,99.90
2017-09-12T08:31:10.123Z,99.90
2017-09-12T08:33:37.679Z,99.90
2017-09-12T08:36:05.369Z,99.90
2017-09-12T08:38:32.930Z,99.90
2017-09-12T08:41:00.514Z,99.90
2017-09-12T08:43:28.083Z,99.90
2017-09-12T08:45:56.447Z,99.90
2017-09-12T08:48:24.007Z,99.90
2017-09-12T08:50:51.567Z,99.90
2017-09-12T08:53:19.152Z,99.90
2017-09-12T08:55:46.720Z,99.90
2017-09-12T08:58:14.328Z,99.90
2017-09-12T09:00:42.660Z,99.90
2017-09-12T09:03:10.223Z,99.90
2017-09-12T09:05:37.844Z,99.90
2017-09-12T09:08:06.179Z,99.90
2017-09-12T09:10:33.772Z,99.90
2017-09-12T09:13:01.340Z,99.90
2017-09-12T09:15:29.706Z,99.90
2017-09-12T09:17:58.043Z,99.90
2017-09-12T09:20:25.659Z,99.90
2017-09-12T09:22:53.991Z,99.90
2017-09-12T09:25:21.555Z,99.90
2017-09-12T09:27:49.144Z,99.90
2017-09-12T09:30:17.509Z,99.90
2017-09-12T09:32:45.215Z,99.90
2017-09-12T09:35:12.739Z,99.90
2017-09-12T09:37:41.055Z,99.90
2017-09-12T09:40:08.644Z,99.90
2017-09-12T09:42:36.276Z,99.90
2017-09-12T09:45:03.881Z,99.90
2017-09-12T09:47:31.447Z,99.90
2017-09-12T09:49:59.807Z,99.90
2017-09-12T09:52:27.375Z,99.90
2017-09-12T09:54:54.972Z,99.90
2017-09-12T09:57:22.554Z,99.90
2017-09-12T09:59:50.199Z,99.90
2017-09-12T10:02:17.806Z,99.90
2017-09-12T10:04:45.371Z,99.90
2017-09-12T10:07:12.946Z,99.90
2017-09-12T10:09:41.303Z,99.90
2017-09-12T10:12:09.645Z,99.90
2017-09-12T10:14:37.246Z,99.90
2017-09-12T10:17:05.595Z,99.90
2017-09-12T10:19:33.216Z,99.90
2017-09-12T10:22:00.892Z,99.90
2017-09-12T10:24:28.532Z,99.90
2017-09-12T10:26:56.131Z,99.90
2017-09-12T10:29:23.699Z,99.90
2017-09-12T10:31:51.282Z,99.90
2017-09-12T10:34:19.636Z,99.90
2017-09-12T10:36:47.231Z,99.90
2017-09-12T10:39:15.597Z,99.90
2017-09-12T10:41:43.940Z,99.60
2017-09-12T10:44:11.527Z,99.60
2017-09-12T10:46:39.099Z,99.90
2017-09-12T10:49:07.428Z,99.90
2017-09-12T10:51:35.007Z,99.90
2017-09-12T10:54:02.588Z,99.70
2017-09-12T10:56:31.014Z,97.50
2017-09-12T10:58:58.655Z,97.50
2017-09-12T11:01:26.356Z,98.30
2017-09-12T11:03:53.919Z,98.50
2017-09-12T11:06:21.539Z,96.30
2017-09-12T11:08:49.094Z,95.10
2017-09-12T11:11:16.820Z,93.80
2017-09-12T11:13:45.207Z,94.10
2017-09-12T11:16:13.534Z,95.30
2017-09-12T11:18:41.132Z,95.30
2017-09-12T11:21:09.471Z,97.30
2017-09-12T11:23:37.071Z,97.30
2017-09-12T11:26:05.415Z,94.70
2017-09-12T11:28:33.019Z,94.70
2017-09-12T11:31:01.357Z,96.20
2017-09-12T11:33:28.944Z,96.20
2017-09-12T11:35:57.472Z,98.60
2017-09-12T11:38:25.028Z,98.60
2017-09-12T11:40:52.655Z,99.20
2017-09-12T11:43:21.015Z,99.90
2017-09-12T11:45:49.368Z,99.90
2017-09-12T11:48:17.109Z,99.90
2017-09-12T11:50:44.715Z,99.90
2017-09-12T11:53:13.044Z,99.90
2017-09-12T11:55:40.602Z,99.90
2017-09-12T11:58:08.199Z,99.90
2017-09-12T12:00:35.763Z,99.90
2017-09-12T12:03:04.116Z,99.90
2017-09-12T12:05:31.696Z,99.90
2017-09-12T12:08:00.033Z,99.90
2017-09-12T12:10:27.621Z,99.90
2017-09-12T12:12:55.197Z,99.90
2017-09-12T12:15:23.656Z,99.90
2017-09-12T12:17:51.236Z,99.90
2017-09-12T12:20:19.593Z,99.90
2017-09-12T12:22:47.159Z,99.90
2017-09-12T12:25:14.905Z,99.90
2017-09-12T12:27:42.468Z,99.90
2017-09-12T12:30:10.143Z,99.90
2017-09-12T12:32:38.479Z,99.90
2017-09-12T12:35:06.039Z,99.90
2017-09-12T12:37:33.732Z,99.90
2017-09-12T12:40:02.119Z,98.70
2017-09-12T12:42:30.443Z,99.30
2017-09-12T12:44:58.019Z,98.90
2017-09-12T12:47:25.600Z,97.30
2017-09-12T12:49:53.180Z,97.50
2017-09-12T12:52:21.672Z,99.90
2017-09-12T12:54:49.227Z,99.90
2017-09-12T12:57:16.792Z,99.90
2017-09-12T12:59:44.375Z,99.90
2017-09-12T13:02:11.975Z,99.90
2017-09-12T13:04:40.784Z,99.90
2017-09-12T13:07:09.123Z,99.90
2017-09-12T13:09:36.706Z,99.90
2017-09-12T13:12:05.051Z,99.90
2017-09-12T13:14:32.664Z,99.90
2017-09-12T13:17:00.216Z,99.90
2017-09-12T13:19:27.792Z,99.90
2017-09-12T13:21:55.377Z,99.90
2017-09-12T13:24:22.958Z,99.90
2017-09-12T13:26:50.711Z,99.90
2017-09-12T13:29:18.275Z,99.90
2017-09-12T13:31:45.848Z,99.90
2017-09-12T13:34:13.444Z,99.90
2017-09-12T13:36:41.029Z,99.90
2017-09-12T13:39:08.616Z,99.90
2017-09-12T13:41:36.267Z,99.90
2017-09-12T13:44:03.891Z,99.90
2017-09-12T13:46:31.456Z,99.90
2017-09-12T13:48:59.016Z,99.90
2017-09-12T13:51:26.643Z,99.90
2017-09-12T13:53:55.153Z,99.90
2017-09-12T13:56:22.785Z,99.90
2017-09-12T13:58:50.338Z,99.80
2017-09-12T14:01:18.680Z,99.90
2017-09-12T14:03:47.756Z,99.90
2017-09-12T14:06:15.351Z,99.90
2017-09-12T14:08:42.910Z,99.90
2017-09-12T14:11:11.272Z,99.90
2017-09-12T14:13:38.867Z,99.90
2017-09-12T14:16:06.441Z,99.90
2017-09-12T14:18:34.032Z,99.30
2017-09-12T14:21:01.595Z,99.60
2017-09-12T14:23:29.190Z,99.40
2017-09-12T14:25:57.522Z,99.20
2017-09-12T14:28:25.243Z,99.20
2017-09-12T14:30:52.822Z,98.40
2017-09-12T14:33:20.386Z,98.40
2017-09-12T14:35:47.976Z,99.10
2017-09-12T14:38:15.536Z,98.80
2017-09-12T14:40:43.167Z,98.30
2017-09-12T14:43:10.805Z,99.70
2017-09-12T14:45:38.385Z,99.00
2017-09-12T14:48:05.990Z,98.30
2017-09-12T14:50:34.375Z,98.00
2017-09-12T14:53:02.732Z,98.70
2017-09-12T14:55:30.293Z,98.70
2017-09-12T14:57:59.428Z,96.90
2017-09-12T15:00:26.989Z,96.80
2017-09-12T15:02:54.595Z,95.60
2017-09-12T15:05:22.178Z,96.70
2017-09-12T15:07:50.508Z,96.50
2017-09-12T15:10:18.118Z,96.50
2017-09-12T15:12:46.472Z,98.00
2017-09-12T15:15:14.086Z,98.20
2017-09-12T15:17:41.651Z,97.20
2017-09-12T15:20:09.256Z,97.50
2017-09-12T15:22:37.604Z,98.10
2017-09-12T15:25:05.263Z,97.70
2017-09-12T15:27:32.860Z,97.50
2017-09-12T15:30:01.206Z,98.70
2017-09-12T15:32:28.796Z,98.70
2017-09-12T15:34:57.147Z,99.30
2017-09-12T15:37:24.720Z,99.30
2017-09-12T15:39:52.312Z,98.90
2017-09-12T15:42:19.914Z,99.30
2017-09-12T15:44:47.528Z,99.40
2017-09-12T15:47:15.091Z,99.70
2017-09-12T15:49:42.655Z,99.50
2017-09-12T15:52:10.233Z,99.60
2017-09-12T15:54:37.802Z,99.90
2017-09-12T15:57:05.398Z,99.60
2017-09-12T15:59:33.785Z,99.90
2017-09-12T16:02:02.140Z,99.50
2017-09-12T16:04:29.715Z,99.50
2017-09-12T16:06:58.177Z,99.80
2017-09-12T16:09:25.744Z,99.70
2017-09-12T16:11:54.091Z,99.90
2017-09-12T16:14:21.662Z,99.90
2017-09-12T16:16:49.251Z,99.90
2017-09-12T16:19:17.588Z,99.60
2017-09-12T16:21:45.177Z,99.60
2017-09-12T16:24:13.555Z,99.90
2017-09-12T16:26:41.883Z,99.80
2017-09-12T16:29:09.479Z,99.80
2017-09-12T16:31:37.042Z,99.40
2017-09-12T16:34:05.407Z,99.90
2017-09-12T16:36:32.977Z,99.90
2017-09-12T16:39:00.560Z,99.90
2017-09-12T16:41:28.147Z,99.90
2017-09-12T16:43:55.719Z,99.90
2017-09-12T16:46:23.312Z,99.90
2017-09-12T16:48:51.672Z,99.90
2017-09-12T16:51:19.259Z,99.90
2017-09-12T16:53:47.856Z,99.90
2017-09-12T16:56:15.411Z,99.90
2017-09-12T16:58:42.968Z,99.90
2017-09-12T17:01:10.567Z,99.90
2017-09-12T17:03:38.172Z,99.90
2017-09-12T17:06:06.498Z,99.90
2017-09-12T17:08:34.079Z,99.90
2017-09-12T17:11:01.807Z,99.90
2017-09-12T17:13:29.372Z,99.90
2017-09-12T17:15:57.066Z,99.90
2017-09-12T17:18:24.627Z,99.90
2017-09-12T17:20:52.232Z,99.90
2017-09-12T17:23:19.800Z,99.90
2017-09-12T17:25:47.380Z,99.90
2017-09-12T17:28:14.987Z,99.90
2017-09-12T17:30:43.368Z,99.90
2017-09-12T17:33:11.752Z,99.90
2017-09-12T17:35:39.336Z,99.90
2017-09-12T17:38:06.919Z,99.90
2017-09-12T17:40:34.696Z,99.90
2017-09-12T17:43:02.256Z,99.90
2017-09-12T17:45:29.900Z,99.90
2017-09-12T17:47:57.500Z,99.90
2017-09-12T17:50:25.836Z,99.90
2017-09-12T17:52:53.405Z,99.90
2017-09-12T17:55:21.024Z,99.90
2017-09-12T17:57:48.599Z,99.90
2017-09-12T18:00:16.189Z,99.90
2017-09-12T18:02:43.753Z,99.90
2017-09-12T18:05:11.353Z,99.90
2017-09-12T18:07:38.916Z,99.90
2017-09-12T18:10:06.489Z,99.90
2017-09-12T18:12:34.106Z,99.90
2017-09-12T18:15:02.497Z,99.90
2017-09-12T18:17:30.099Z,99.90
2017-09-12T18:19:57.673Z,99.90
2017-09-12T18:22:25.389Z,99.90
2017-09-12T18:24:52.960Z,99.90
2017-09-12T18:27:20.556Z,99.90
2017-09-12T18:29:49.632Z,99.90
2017-09-12T18:32:17.204Z,99.90
2017-09-12T18:34:44.830Z,99.90
2017-09-12T18:37:12.388Z,99.90
2017-09-12T18:39:40.034Z,99.90
2017-09-12T18:42:07.637Z,99.90
2017-09-12T18:44:35.207Z,99.90
2017-09-12T18:47:02.808Z,99.90
2017-09-12T18:49:30.389Z,99.90
2017-09-12T18:51:57.998Z,99.90
2017-09-12T18:54:26.509Z,99.90
2017-09-12T18:56:54.077Z,99.90
2017-09-12T18:59:21.664Z,99.90
2017-09-12T19:01:49.242Z,99.90
2017-09-12T19:04:16.845Z,99.90
2017-09-12T19:06:44.439Z,99.90
2017-09-12T19:09:12.022Z,99.90
2017-09-12T19:11:39.636Z,99.90
2017-09-12T19:14:07.289Z,99.90
2017-09-12T19:16:34.911Z,99.90
2017-09-12T19:19:03.431Z,99.90
2017-09-12T19:21:31.184Z,99.90
2017-09-12T19:23:58.795Z,99.90
2017-09-12T19:26:26.365Z,99.90
2017-09-12T19:28:54.772Z,99.90
2017-09-12T19:31:22.352Z,99.90
2017-09-12T19:33:49.945Z,99.90
2017-09-12T19:36:18.356Z,99.90
2017-09-12T19:38:46.768Z,99.90
2017-09-12T19:41:14.365Z,99.90
2017-09-12T19:43:41.977Z,99.90
2017-09-12T19:46:09.661Z,99.90
2017-09-12T19:48:37.290Z,99.90
2017-09-12T19:51:04.988Z,99.90
2017-09-12T19:53:32.555Z,99.90
2017-09-12T19:56:00.157Z,99.90
2017-09-12T19:58:27.700Z,99.90
2017-09-12T20:00:56.180Z,99.90
2017-09-12T20:03:24.555Z,99.90
2017-09-12T20:05:52.985Z,99.90
2017-09-12T20:08:20.647Z,99.90
2017-09-12T20:10:48.208Z,99.90
2017-09-12T20:13:15.822Z,99.90
2017-09-12T20:15:44.229Z,99.90
2017-09-12T20:18:11.891Z,99.90
2017-09-12T20:20:39.467Z,99.90
2017-09-12T20:23:07.047Z,99.90
2017-09-12T20:25:34.796Z,99.90
2017-09-12T20:28:02.369Z,99.90
2017-09-12T20:30:31.480Z,99.90
2017-09-12T20:32:59.825Z,99.90
2017-09-12T20:35:27.403Z,99.90
2017-09-12T20:37:54.990Z,99.90
2017-09-12T20:40:22.548Z,99.90
2017-09-12T20:42:50.139Z,99.90
2017-09-12T20:45:17.711Z,99.90
2017-09-12T20:47:45.360Z,99.90
2017-09-12T20:50:12.943Z,99.90
2017-09-12T20:52:40.640Z,99.90
2017-09-12T20:55:09.044Z,99.90
2017-09-12T20:57:36.743Z,99.90
2017-09-12T21:00:04.357Z,99.90
2017-09-12T21:02:31.947Z,99.90
2017-09-12T21:04:59.516Z,99.90
2017-09-12T21:07:27.188Z,99.90
2017-09-12T21:09:54.817Z,99.90
2017-09-12T21:12:22.401Z,99.90
2017-09-12T21:14:51.515Z,99.90
2017-09-12T21:17:19.869Z,99.90
2017-09-12T21:19:47.520Z,99.90
2017-09-12T21:22:15.100Z,99.90
2017-09-12T21:24:42.780Z,99.90
2017-09-12T21:27:11.233Z,99.90
2017-09-12T21:29:38.823Z,99.90
2017-09-12T21:32:07.177Z,99.90
2017-09-12T21:34:34.736Z,99.90
2017-09-12T21:37:02.328Z,99.90
2017-09-12T21:39:29.936Z,99.90
2017-09-12T21:41:57.503Z,99.90
2017-09-12T21:44:25.071Z,99.90
2017-09-12T21:46:54.319Z,99.90
2017-09-12T21:49:21.888Z,99.90
2017-09-12T21:51:49.487Z,99.90
2017-09-12T21:54:17.159Z,99.90
2017-09-12T21:56:45.547Z,99.90
2017-09-12T21:59:13.887Z,99.90
2017-09-12T22:04:32.266Z,99.90
2017-09-12T22:07:00.740Z,99.90
2017-09-12T22:09:29.910Z,99.90
2017-09-12T22:11:57.854Z,99.90
2017-09-12T22:14:25.542Z,99.90
2017-09-12T22:16:53.206Z,99.90
2017-09-12T22:19:21.023Z,99.90
2017-09-12T22:21:48.687Z,99.90
2017-09-12T22:24:17.138Z,99.90
2017-09-12T22:26:45.615Z,99.90
2017-09-12T22:29:13.278Z,99.90
2017-09-12T22:31:40.972Z,99.90
2017-09-12T22:34:08.646Z,99.90
2017-09-12T22:36:37.522Z,99.90
2017-09-12T22:39:05.236Z,99.90
2017-09-12T22:41:33.673Z,99.90
2017-09-12T22:44:01.355Z,99.90
2017-09-12T22:46:29.058Z,99.90
2017-09-12T22:48:57.536Z,99.90
2017-09-12T22:51:25.972Z,99.90
2017-09-12T22:53:53.638Z,99.90
2017-09-12T22:56:21.319Z,99.90
2017-09-12T22:58:48.968Z,99.90
2017-09-12T23:01:16.655Z,99.90
2017-09-12T23:03:45.771Z,99.90
2017-09-12T23:06:13.430Z,99.90
2017-09-12T23:08:41.879Z,99.90
2017-09-12T23:11:10.330Z,99.90
2017-09-12T23:13:38.159Z,99.90
2017-09-12T23:16:05.823Z,99.90
2017-09-12T23:18:33.484Z,99.90
2017-09-12T23:21:01.162Z,99.90
2017-09-12T23:23:28.831Z,99.90
2017-09-12T23:25:59.351Z,99.90
2017-09-12T23:28:27.060Z,99.90
2017-09-12T23:30:54.983Z,99.90
2017-09-12T23:33:22.639Z,99.90
2017-09-12T23:35:50.336Z,99.90
2017-09-12T23:38:19.933Z,99.90
2017-09-12T23:40:48.409Z,99.90
2017-09-12T23:43:16.087Z,99.90
2017-09-12T23:45:45.967Z,99.90
2017-09-12T23:48:13.567Z,99.90
2017-09-12T23:50:41.132Z,99.90
2017-09-12T23:53:09.603Z,99.90
2017-09-12T23:55:38.847Z,99.90
2017-09-12T23:58:06.435Z,99.90
